createdAt,value
2018-07-21T00:00:47.096Z,9.03
2018-07-21T00:03:15.781Z,10.17
2018-07-21T00:05:44.443Z,9.03
2018-07-21T00:08:13.094Z,9.87
2018-07-21T00:10:41.759Z,9.20
2018-07-21T00:13:10.358Z,9.17
2018-07-21T00:15:39.009Z,9.83
2018-07-21T00:18:07.649Z,9.70
2018-07-21T00:20:36.356Z,10.17
2018-07-21T00:23:04.971Z,9.50
2018-07-21T00:25:33.620Z,10.50
2018-07-21T00:28:02.247Z,10.40
2018-07-21T00:30:30.896Z,9.20
2018-07-21T00:32:59.531Z,9.90
2018-07-21T00:35:28.221Z,10.60
2018-07-21T00:37:56.833Z,9.10
2018-07-21T00:40:25.505Z,10.10
2018-07-21T00:42:54.118Z,9.90
2018-07-21T00:45:22.759Z,10.70
2018-07-21T00:47:51.380Z,9.67
2018-07-21T00:50:20.038Z,10.30
2018-07-21T00:52:48.705Z,10.20
2018-07-21T00:55:17.369Z,9.87
2018-07-21T00:57:45.979Z,8.90
2018-07-21T01:00:14.633Z,10.97
2018-07-21T01:02:43.299Z,10.77
2018-07-21T01:05:11.940Z,10.20
2018-07-21T01:07:40.598Z,11.00
2018-07-21T01:10:09.330Z,10.77
2018-07-21T01:12:38.375Z,11.83
2018-07-21T01:15:07.796Z,11.63
2018-07-21T01:17:36.449Z,11.10
2018-07-21T01:20:06.085Z,11.13
2018-07-21T01:22:34.719Z,11.03
2018-07-21T01:25:03.416Z,12.20
2018-07-21T01:27:32.063Z,10.67
2018-07-21T01:30:00.766Z,11.53
2018-07-21T01:32:29.421Z,11.73
2018-07-21T01:34:58.043Z,10.47
2018-07-21T01:37:26.664Z,10.57
2018-07-21T01:39:55.365Z,11.40
2018-07-21T01:42:24.062Z,12.27
2018-07-21T01:44:52.668Z,11.40
2018-07-21T01:47:21.377Z,10.90
2018-07-21T01:49:49.960Z,10.07
2018-07-21T01:52:18.678Z,10.37
2018-07-21T01:54:46.883Z,8.67
2018-07-21T01:57:15.530Z,10.80
2018-07-21T01:59:44.170Z,9.47
2018-07-21T02:02:12.912Z,9.30
2018-07-21T02:04:41.579Z,9.40
2018-07-21T02:07:10.220Z,9.70
2018-07-21T02:09:38.822Z,10.70
2018-07-21T02:12:07.561Z,9.73
2018-07-21T02:14:35.788Z,9.90
2018-07-21T02:17:04.405Z,9.63
2018-07-21T02:19:33.057Z,10.00
2018-07-21T02:22:01.697Z,9.87
2018-07-21T02:24:30.309Z,9.77
2018-07-21T02:26:59.030Z,9.53
2018-07-21T02:29:27.646Z,9.57
2018-07-21T02:31:56.301Z,8.30
2018-07-21T02:34:24.918Z,9.17
2018-07-21T02:36:53.574Z,9.47
2018-07-21T02:39:22.202Z,9.00
2018-07-21T02:41:50.867Z,8.83
2018-07-21T02:44:19.508Z,8.97
2018-07-21T02:46:48.206Z,9.23
2018-07-21T02:49:16.823Z,8.97
2018-07-21T02:51:45.501Z,8.80
2018-07-21T02:54:14.114Z,9.57
2018-07-21T02:56:42.786Z,8.93
2018-07-21T02:59:11.445Z,8.47
2018-07-21T03:01:40.090Z,8.60
2018-07-21T03:04:08.729Z,9.30
2018-07-21T03:06:37.465Z,8.23
2018-07-21T03:09:08.732Z,8.90
2018-07-21T03:11:37.368Z,8.07
2018-07-21T03:14:06.476Z,8.13
2018-07-21T03:16:35.119Z,7.90
2018-07-21T03:19:03.742Z,7.73
2018-07-21T03:21:32.608Z,7.70
2018-07-21T03:24:01.376Z,9.37
2018-07-21T03:26:30.164Z,8.87
2018-07-21T03:28:58.761Z,7.97
2018-07-21T03:31:27.390Z,7.57
2018-07-21T03:33:56.026Z,7.03
2018-07-21T03:36:24.736Z,7.53
2018-07-21T03:38:53.325Z,7.40
2018-07-21T03:41:21.983Z,6.50
2018-07-21T03:43:50.638Z,5.87
2018-07-21T03:46:19.256Z,6.20
2018-07-21T03:48:47.876Z,6.90
2018-07-21T03:51:16.573Z,6.30
2018-07-21T03:53:45.208Z,6.30
2018-07-21T03:56:13.834Z,5.43
2018-07-21T03:58:42.456Z,6.10
2018-07-21T04:01:11.090Z,6.93
2018-07-21T04:03:39.685Z,6.03
2018-07-21T04:06:08.288Z,5.83
2018-07-21T04:08:36.902Z,5.87
